Time;durP1;ratioP1;P1;durP2;ratioP2;P2;SDS_P1;SDS_P2;PMS_P1;PMS_P2;Temp;Humidity;BMP_temperature;BMP_pressure;BME280_temperature;BME280_humidity;BME280_pressure;Samples;Min_cycle;Max_cycle;Signal;HPM_P1;HPM_P2
2021/07/20 00:01:20;;;;;;;9.80;5.20;;;;;;;;;;5029894;28;20643;-73
2021/07/20 00:03:45;;;;;;;9.40;5.60;;;;;;;;;;5032631;28;20276;-71
2021/07/20 00:06:12;;;;;;;14.65;6.55;;;;;;;;;;5039356;28;20846;-71
2021/07/20 00:08:37;;;;;;;10.80;6.20;;;;;;;;;;5035241;28;20026;-71
2021/07/20 00:11:03;;;;;;;11.57;5.55;;;;;;;;;;5028633;28;20425;-73
2021/07/20 00:13:28;;;;;;;12.45;5.88;;;;;;;;;;5033624;28;20075;-72
2021/07/20 00:15:55;;;;;;;9.02;5.05;;;;;;;;;;5028918;28;20120;-71
2021/07/20 00:18:22;;;;;;;11.50;6.20;;;;;;;;;;5034490;28;20028;-71
2021/07/20 00:20:47;;;;;;;11.40;6.13;;;;;;;;;;5025876;28;20041;-72
2021/07/20 00:23:12;;;;;;;14.57;5.72;;;;;;;;;;5027496;28;20151;-72
2021/07/20 00:25:37;;;;;;;14.35;6.70;;;;;;;;;;5028513;28;20117;-72
2021/07/20 00:28:03;;;;;;;16.20;6.47;;;;;;;;;;5035792;28;20056;-72
2021/07/20 00:30:29;;;;;;;11.63;7.43;;;;;;;;;;5032671;28;20021;-73
2021/07/20 00:32:54;;;;;;;11.35;5.70;;;;;;;;;;5028975;28;20026;-73
2021/07/20 00:35:19;;;;;;;10.65;6.03;;;;;;;;;;5034776;28;20034;-72
2021/07/20 00:37:44;;;;;;;12.38;6.78;;;;;;;;;;5027867;28;20075;-72
2021/07/20 00:40:12;;;;;;;13.50;6.97;;;;;;;;;;5035490;28;20021;-72
2021/07/20 00:42:38;;;;;;;12.65;7.35;;;;;;;;;;5027094;28;20469;-73
2021/07/20 00:45:04;;;;;;;14.13;7.53;;;;;;;;;;5034888;28;20075;-73
2021/07/20 00:47:29;;;;;;;13.75;6.95;;;;;;;;;;5020906;28;20033;-72
2021/07/20 00:49:55;;;;;;;11.50;6.60;;;;;;;;;;5036664;28;20515;-73
2021/07/20 00:52:20;;;;;;;15.65;6.80;;;;;;;;;;5026658;28;20028;-72
2021/07/20 00:54:45;;;;;;;13.75;7.55;;;;;;;;;;5034888;28;20077;-72
2021/07/20 00:57:10;;;;;;;15.05;8.80;;;;;;;;;;5044139;28;20131;-73
2021/07/20 00:59:37;;;;;;;14.43;8.48;;;;;;;;;;5028048;28;20021;-72
2021/07/20 01:02:02;;;;;;;12.15;6.85;;;;;;;;;;5027366;28;20026;-73
2021/07/20 01:04:27;;;;;;;11.45;6.97;;;;;;;;;;5029512;28;20111;-73
2021/07/20 01:06:55;;;;;;;14.00;7.50;;;;;;;;;;5022861;28;20076;-72
2021/07/20 01:09:21;;;;;;;13.45;7.65;;;;;;;;;;5033711;28;20109;-73
2021/07/20 01:11:47;;;;;;;14.10;7.38;;;;;;;;;;5029212;28;20113;-73
2021/07/20 01:14:12;;;;;;;13.18;7.60;;;;;;;;;;5025038;28;20025;-72
2021/07/20 01:16:39;;;;;;;11.75;7.82;;;;;;;;;;5025601;28;20515;-72
2021/07/20 01:19:05;;;;;;;16.38;8.43;;;;;;;;;;5025876;28;20025;-74
2021/07/20 01:21:32;;;;;;;15.70;7.85;;;;;;;;;;5028384;28;20483;-73
2021/07/20 01:23:57;;;;;;;12.65;7.88;;;;;;;;;;5025388;28;20393;-73
2021/07/20 01:26:23;;;;;;;15.35;8.05;;;;;;;;;;5032380;28;20021;-73
2021/07/20 01:28:48;;;;;;;13.40;7.55;;;;;;;;;;5024663;28;20028;-72
2021/07/20 01:31:16;;;;;;;12.90;7.80;;;;;;;;;;5029441;28;20021;-73
2021/07/20 01:33:43;;;;;;;12.30;8.30;;;;;;;;;;5036609;28;20543;-74
2021/07/20 01:36:10;;;;;;;12.90;7.82;;;;;;;;;;5030429;28;20018;-73
2021/07/20 01:38:35;;;;;;;15.48;8.68;;;;;;;;;;5030277;28;20116;-73
2021/07/20 01:41:07;;;;;;;13.52;8.38;;;;;;;;;;5028232;28;20504;-73
2021/07/20 01:43:34;;;;;;;14.25;7.93;;;;;;;;;;5030855;28;20025;-72
2021/07/20 01:46:00;;;;;;;12.85;7.57;;;;;;;;;;5022668;28;20439;-72
2021/07/20 01:48:27;;;;;;;13.05;7.95;;;;;;;;;;5031165;28;20401;-73
2021/07/20 01:50:52;;;;;;;18.10;8.77;;;;;;;;;;5036328;28;20146;-72
2021/07/20 01:53:18;;;;;;;13.57;8.60;;;;;;;;;;5037426;28;20568;-72
2021/07/20 01:55:44;;;;;;;15.70;8.40;;;;;;;;;;5037711;28;20029;-72
2021/07/20 01:58:09;;;;;;;15.07;8.60;;;;;;;;;;5027942;28;20051;-72
2021/07/20 02:00:34;;;;;;;14.80;8.48;;;;;;;;;;5032304;28;20039;-71
2021/07/20 02:08:27;;;;;;;13.55;7.78;;;;;;;;;;5032037;28;20040;-71
2021/07/20 02:10:54;;;;;;;16.08;8.52;;;;;;;;;;5027277;28;20048;-72
2021/07/20 02:13:20;;;;;;;10.60;6.72;;;;;;;;;;5030610;28;20029;-70
2021/07/20 02:15:47;;;;;;;13.18;7.53;;;;;;;;;;5029560;28;20067;-72
2021/07/20 02:18:13;;;;;;;14.30;8.02;;;;;;;;;;5037489;28;20388;-72
2021/07/20 02:20:40;;;;;;;16.13;8.20;;;;;;;;;;5029620;28;20096;-72
2021/07/20 02:23:06;;;;;;;15.57;7.90;;;;;;;;;;5037390;28;20025;-72
2021/07/20 02:25:31;;;;;;;13.25;8.18;;;;;;;;;;5034358;28;20025;-71
2021/07/20 02:27:57;;;;;;;16.15;8.18;;;;;;;;;;5029966;28;20523;-72
2021/07/20 02:30:22;;;;;;;12.73;7.93;;;;;;;;;;5037676;28;20404;-72
2021/07/20 02:32:48;;;;;;;14.77;7.97;;;;;;;;;;5030094;28;20392;-71
2021/07/20 02:35:19;;;;;;;13.52;8.00;;;;;;;;;;5031298;28;20017;-70
2021/07/20 02:37:45;;;;;;;13.40;8.27;;;;;;;;;;5034543;28;20021;-71
2021/07/20 02:40:11;;;;;;;13.70;7.70;;;;;;;;;;5027844;28;20143;-70
2021/07/20 02:42:37;;;;;;;15.73;8.73;;;;;;;;;;5036531;28;20026;-73
2021/07/20 02:45:06;;;;;;;16.23;9.25;;;;;;;;;;5038747;28;20037;-72
2021/07/20 02:47:33;;;;;;;13.73;8.55;;;;;;;;;;5031947;28;20087;-71
2021/07/20 02:49:58;;;;;;;15.15;8.73;;;;;;;;;;5028691;28;20120;-71
2021/07/20 02:52:23;;;;;;;14.23;8.25;;;;;;;;;;5035836;28;20176;-72
2021/07/20 02:54:49;;;;;;;15.07;9.13;;;;;;;;;;5034855;28;20021;-72
2021/07/20 02:57:15;;;;;;;14.80;8.38;;;;;;;;;;5032646;28;20025;-72
2021/07/20 02:59:41;;;;;;;15.45;8.63;;;;;;;;;;5031877;28;20659;-73
2021/07/20 03:02:06;;;;;;;15.85;8.30;;;;;;;;;;5030037;28;20036;-71
2021/07/20 03:04:32;;;;;;;15.82;8.80;;;;;;;;;;5034280;28;20113;-74
2021/07/20 03:07:03;;;;;;;16.60;9.35;;;;;;;;;;5032427;28;20521;-72
2021/07/20 03:09:29;;;;;;;19.35;9.55;;;;;;;;;;5025897;28;20060;-72
2021/07/20 03:12:00;;;;;;;15.27;8.63;;;;;;;;;;5035831;28;20021;-72
2021/07/20 03:14:26;;;;;;;16.67;9.48;;;;;;;;;;5027640;28;20025;-70
2021/07/20 03:16:53;;;;;;;15.80;9.48;;;;;;;;;;5029170;28;20029;-73
2021/07/20 03:19:22;;;;;;;16.85;8.88;;;;;;;;;;5035463;28;20025;-71
2021/07/20 03:21:49;;;;;;;17.23;9.45;;;;;;;;;;5040820;28;20033;-74
2021/07/20 03:24:14;;;;;;;14.32;8.65;;;;;;;;;;5029807;28;20040;-71
2021/07/20 03:26:39;;;;;;;14.57;8.80;;;;;;;;;;5027078;28;20422;-72
2021/07/20 03:29:06;;;;;;;15.35;8.40;;;;;;;;;;5030263;28;20550;-71
2021/07/20 03:31:33;;;;;;;15.25;8.75;;;;;;;;;;5038884;28;20025;-70
2021/07/20 03:33:59;;;;;;;15.00;9.13;;;;;;;;;;5037573;28;20121;-69
2021/07/20 03:36:26;;;;;;;14.93;9.13;;;;;;;;;;5040600;28;20114;-70
2021/07/20 03:38:51;;;;;;;13.60;8.50;;;;;;;;;;5037075;28;20030;-71
2021/07/20 03:41:17;;;;;;;17.40;9.00;;;;;;;;;;5034749;28;20025;-71
2021/07/20 03:43:42;;;;;;;14.60;8.50;;;;;;;;;;5027707;28;20485;-70
2021/07/20 03:46:07;;;;;;;16.13;9.45;;;;;;;;;;5026876;28;20057;-72
2021/07/20 03:48:33;;;;;;;13.80;8.20;;;;;;;;;;5031643;28;20127;-71
2021/07/20 03:50:59;;;;;;;15.85;9.13;;;;;;;;;;5033958;28;20049;-73
2021/07/20 03:53:28;;;;;;;18.08;8.70;;;;;;;;;;5030111;28;20072;-74
2021/07/20 03:55:54;;;;;;;17.38;9.30;;;;;;;;;;5026157;28;20025;-73
2021/07/20 03:58:20;;;;;;;14.27;8.50;;;;;;;;;;5028504;28;20055;-73
2021/07/20 04:00:50;;;;;;;13.27;8.48;;;;;;;;;;5032066;28;20496;-71
2021/07/20 04:03:22;;;;;;;16.20;8.75;;;;;;;;;;5031134;28;20525;-72
2021/07/20 04:06:00;;;;;;;15.75;9.48;;;;;;;;;;5026709;28;20033;-73
2021/07/20 04:08:26;;;;;;;14.15;9.50;;;;;;;;;;5026795;28;20038;-74
2021/07/20 04:10:52;;;;;;;19.48;9.38;;;;;;;;;;5029090;28;20361;-73
2021/07/20 04:13:18;;;;;;;19.05;8.95;;;;;;;;;;5032116;28;20033;-73
2021/07/20 04:15:48;;;;;;;16.70;9.25;;;;;;;;;;5031687;28;20027;-72
2021/07/20 04:18:13;;;;;;;15.43;9.18;;;;;;;;;;5027989;28;20029;-73
2021/07/20 04:20:39;;;;;;;15.57;9.60;;;;;;;;;;5035795;28;20032;-72
2021/07/20 04:23:05;;;;;;;20.25;9.65;;;;;;;;;;5035925;28;20145;-72
2021/07/20 04:25:30;;;;;;;14.23;9.43;;;;;;;;;;5034348;28;20079;-72
2021/07/20 04:27:56;;;;;;;27.38;10.05;;;;;;;;;;5028107;28;20033;-72
2021/07/20 04:30:21;;;;;;;15.27;9.27;;;;;;;;;;5031590;28;20021;-73
2021/07/20 04:32:47;;;;;;;17.30;9.60;;;;;;;;;;5030994;28;20021;-72
2021/07/20 04:35:14;;;;;;;15.90;8.20;;;;;;;;;;5037863;28;20021;-74
2021/07/20 04:37:40;;;;;;;17.33;9.18;;;;;;;;;;5038458;28;20073;-72
2021/07/20 04:40:07;;;;;;;14.00;8.40;;;;;;;;;;5030392;28;20052;-72
2021/07/20 04:42:34;;;;;;;15.45;9.13;;;;;;;;;;5028205;28;20029;-72
2021/07/20 04:44:59;;;;;;;13.70;8.43;;;;;;;;;;5029609;28;20029;-71
2021/07/20 04:47:24;;;;;;;13.63;8.05;;;;;;;;;;5043761;28;20036;-74
2021/07/20 04:49:50;;;;;;;17.07;9.53;;;;;;;;;;5035911;28;20025;-71
2021/07/20 04:52:16;;;;;;;16.65;9.68;;;;;;;;;;5044810;28;20288;-73
2021/07/20 04:54:41;;;;;;;15.35;9.35;;;;;;;;;;5032576;28;20045;-72
2021/07/20 04:57:06;;;;;;;15.48;9.43;;;;;;;;;;5025618;28;20104;-72
2021/07/20 04:59:32;;;;;;;15.18;8.52;;;;;;;;;;5031793;28;20022;-72
2021/07/20 05:01:57;;;;;;;16.98;9.95;;;;;;;;;;5032683;28;20044;-66
2021/07/20 05:04:23;;;;;;;19.27;9.20;;;;;;;;;;5040349;28;20035;-65
2021/07/20 05:06:49;;;;;;;17.25;8.90;;;;;;;;;;5027048;28;20040;-65
2021/07/20 05:09:14;;;;;;;14.40;9.10;;;;;;;;;;5030416;28;20068;-65
2021/07/20 05:11:40;;;;;;;15.82;9.77;;;;;;;;;;5043965;28;20056;-65
2021/07/20 05:14:05;;;;;;;15.10;8.60;;;;;;;;;;5040761;28;20025;-66
2021/07/20 05:16:32;;;;;;;15.30;8.75;;;;;;;;;;5044338;28;20276;-66
2021/07/20 05:18:57;;;;;;;17.30;8.65;;;;;;;;;;5036727;28;20412;-65
2021/07/20 05:21:23;;;;;;;15.23;8.75;;;;;;;;;;5039597;28;20028;-65
2021/07/20 05:23:48;;;;;;;13.98;8.32;;;;;;;;;;5036492;28;20431;-65
2021/07/20 05:26:15;;;;;;;14.75;8.43;;;;;;;;;;5032131;28;20369;-65
2021/07/20 05:28:40;;;;;;;14.52;8.35;;;;;;;;;;5029449;28;20033;-65
2021/07/20 05:31:05;;;;;;;15.20;8.88;;;;;;;;;;5028732;28;20766;-64
2021/07/20 05:33:32;;;;;;;13.90;8.10;;;;;;;;;;5037894;28;20083;-67
2021/07/20 05:35:58;;;;;;;13.45;8.02;;;;;;;;;;5032452;28;20025;-65
2021/07/20 05:38:24;;;;;;;14.32;8.35;;;;;;;;;;5035217;28;20091;-65
2021/07/20 05:40:50;;;;;;;12.60;8.18;;;;;;;;;;5029624;28;20025;-64
2021/07/20 05:43:16;;;;;;;14.60;7.50;;;;;;;;;;5031520;28;20144;-65
2021/07/20 05:45:42;;;;;;;15.15;7.90;;;;;;;;;;5030771;28;20033;-64
2021/07/20 05:48:07;;;;;;;13.32;7.75;;;;;;;;;;5031706;28;20083;-63
2021/07/20 05:50:33;;;;;;;14.25;8.10;;;;;;;;;;5033494;28;20045;-63
2021/07/20 05:53:00;;;;;;;16.80;7.22;;;;;;;;;;5031532;28;20132;-65
2021/07/20 05:55:26;;;;;;;14.52;7.95;;;;;;;;;;5039552;28;20373;-64
2021/07/20 05:57:52;;;;;;;14.15;7.65;;;;;;;;;;5043406;28;20044;-65
2021/07/20 06:00:22;;;;;;;10.68;7.65;;;;;;;;;;5031874;28;20032;-65
2021/07/20 06:02:47;;;;;;;;;;;;;;;;;;5031870;28;20511;-64
2021/07/20 06:05:13;;;;;;;10.95;6.93;;;;;;;;;;5034355;28;20782;-65
2021/07/20 06:07:38;;;;;;;11.25;7.30;;;;;;;;;;5046452;28;20033;-65
2021/07/20 06:10:04;;;;;;;14.00;7.07;;;;;;;;;;5036564;28;20028;-63
2021/07/20 06:12:30;;;;;;;11.45;7.75;;;;;;;;;;5029463;28;20041;-65
2021/07/20 06:14:55;;;;;;;13.32;7.05;;;;;;;;;;5029179;28;20455;-65
2021/07/20 06:17:21;;;;;;;12.73;6.75;;;;;;;;;;5030884;28;20397;-66
2021/07/20 06:19:47;;;;;;;11.30;6.68;;;;;;;;;;5035105;28;20105;-66
2021/07/20 06:22:12;;;;;;;10.45;6.15;;;;;;;;;;5040902;28;20120;-64
2021/07/20 06:24:44;;;;;;;11.40;7.22;;;;;;;;;;5046958;28;20020;-65
2021/07/20 06:27:13;;;;;;;12.20;7.00;;;;;;;;;;5036489;28;20052;-65
2021/07/20 06:29:39;;;;;;;13.35;6.53;;;;;;;;;;5034559;28;20053;-65
2021/07/20 06:32:04;;;;;;;13.82;7.50;;;;;;;;;;5036276;28;20059;-65
2021/07/20 06:34:32;;;;;;;13.82;7.45;;;;;;;;;;5037392;28;20029;-65
2021/07/20 06:36:58;;;;;;;12.57;6.47;;;;;;;;;;5034420;28;20061;-64
2021/07/20 06:39:23;;;;;;;10.15;6.63;;;;;;;;;;5041515;28;20063;-65
2021/07/20 06:41:49;;;;;;;13.27;7.25;;;;;;;;;;5034379;28;20161;-64
2021/07/20 06:44:14;;;;;;;12.85;7.20;;;;;;;;;;5041923;28;20448;-65
2021/07/20 06:46:40;;;;;;;12.80;7.10;;;;;;;;;;5046558;28;20021;-64
2021/07/20 06:49:05;;;;;;;10.30;6.28;;;;;;;;;;5040784;28;20030;-65
2021/07/20 06:51:31;;;;;;;10.32;6.72;;;;;;;;;;5039388;28;20112;-65
2021/07/20 06:53:56;;;;;;;11.35;5.82;;;;;;;;;;5044000;28;20045;-65
2021/07/20 06:56:33;;;;;;;12.93;6.78;;;;;;;;;;5037837;28;20124;-66
2021/07/20 06:58:59;;;;;;;9.43;6.30;;;;;;;;;;5036138;28;20104;-66
2021/07/20 07:01:26;;;;;;;11.63;6.78;;;;;;;;;;5040087;28;20021;-65
2021/07/20 07:04:00;;;;;;;10.95;6.47;;;;;;;;;;5035777;28;20107;-66
2021/07/20 07:06:26;;;;;;;9.88;6.60;;;;;;;;;;5040420;28;20040;-66
2021/07/20 07:08:52;;;;;;;10.80;6.63;;;;;;;;;;5029061;28;20527;-66
2021/07/20 07:11:17;;;;;;;9.50;6.72;;;;;;;;;;5033731;28;20024;-66
2021/07/20 07:13:43;;;;;;;12.35;7.50;;;;;;;;;;5029340;28;20040;-65
2021/07/20 07:16:09;;;;;;;10.57;6.30;;;;;;;;;;5030526;28;20024;-65
2021/07/20 07:18:36;;;;;;;10.38;6.53;;;;;;;;;;5030583;28;20374;-65
2021/07/20 07:21:01;;;;;;;10.13;7.18;;;;;;;;;;5042076;28;20025;-65
2021/07/20 07:23:28;;;;;;;11.10;6.68;;;;;;;;;;5036493;28;20029;-66
2021/07/20 07:25:57;;;;;;;10.02;6.55;;;;;;;;;;5023956;28;20032;-66
2021/07/20 07:28:22;;;;;;;;;;;;;;;;;;5023303;28;20076;-65
2021/07/20 07:30:50;;;;;;;12.68;6.50;;;;;;;;;;5035227;28;19971;-65
2021/07/20 07:33:15;;;;;;;14.68;7.00;;;;;;;;;;5035200;28;20063;-65
2021/07/20 07:35:40;;;;;;;13.07;7.00;;;;;;;;;;5041991;28;20094;-65
2021/07/20 07:38:06;;;;;;;10.43;6.57;;;;;;;;;;5028795;28;20100;-66
2021/07/20 07:40:31;;;;;;;10.40;6.30;;;;;;;;;;5040114;28;20035;-66
2021/07/20 07:42:58;;;;;;;11.27;7.32;;;;;;;;;;5037206;28;20032;-66
2021/07/20 07:45:23;;;;;;;9.88;6.60;;;;;;;;;;5032397;28;20059;-66
2021/07/20 07:47:49;;;;;;;12.13;7.13;;;;;;;;;;5032325;28;20496;-65
2021/07/20 07:50:14;;;;;;;13.38;6.97;;;;;;;;;;5028150;28;20176;-65
2021/07/20 07:52:40;;;;;;;18.73;6.70;;;;;;;;;;5031733;28;20094;-65
2021/07/20 07:55:06;;;;;;;12.23;6.88;;;;;;;;;;5044130;28;20025;-65
2021/07/20 07:57:31;;;;;;;10.63;6.15;;;;;;;;;;5035835;28;20381;-64
2021/07/20 07:59:58;;;;;;;9.65;6.05;;;;;;;;;;5034102;28;20026;-66
2021/07/20 08:02:28;;;;;;;13.90;6.32;;;;;;;;;;5040075;28;20030;-65
2021/07/20 08:04:54;;;;;;;11.07;6.57;;;;;;;;;;5030511;28;20571;-64
2021/07/20 08:07:19;;;;;;;13.57;6.72;;;;;;;;;;5031485;28;20160;-64
2021/07/20 08:09:45;;;;;;;10.73;5.90;;;;;;;;;;5020318;28;20025;-65
2021/07/20 08:12:13;;;;;;;10.02;6.35;;;;;;;;;;5028845;28;20784;-65
2021/07/20 08:14:38;;;;;;;17.33;6.60;;;;;;;;;;5033487;28;20589;-66
2021/07/20 08:17:04;;;;;;;11.23;6.17;;;;;;;;;;5032441;28;20044;-66
2021/07/20 08:19:33;;;;;;;12.35;6.28;;;;;;;;;;5028197;28;20264;-66
2021/07/20 08:22:01;;;;;;;13.68;6.63;;;;;;;;;;5028187;28;20117;-66
2021/07/20 08:24:29;;;;;;;10.73;5.93;;;;;;;;;;5038042;28;20127;-66
2021/07/20 08:26:59;;;;;;;11.60;6.55;;;;;;;;;;5026086;28;20083;-65
2021/07/20 08:29:28;;;;;;;8.48;5.20;;;;;;;;;;5032808;28;20644;-65
2021/07/20 08:31:55;;;;;;;10.93;5.70;;;;;;;;;;5028135;28;20105;-66
2021/07/20 08:34:22;;;;;;;10.57;5.57;;;;;;;;;;5034709;28;20033;-65
2021/07/20 08:36:48;;;;;;;13.00;5.40;;;;;;;;;;5030465;28;20365;-65
2021/07/20 08:39:13;;;;;;;11.80;5.65;;;;;;;;;;5026423;28;20029;-66
2021/07/20 08:41:38;;;;;;;11.95;6.03;;;;;;;;;;5028419;28;20487;-65
2021/07/20 08:44:19;;;;;;;9.98;5.50;;;;;;;;;;5026997;28;20167;-65
2021/07/20 08:46:47;;;;;;;9.02;5.43;;;;;;;;;;5028120;28;20036;-66
2021/07/20 08:49:27;;;;;;;10.98;5.90;;;;;;;;;;5028466;28;20025;-65
2021/07/20 08:52:05;;;;;;;10.57;5.97;;;;;;;;;;5029054;28;20168;-66
2021/07/20 08:54:35;;;;;;;12.70;6.75;;;;;;;;;;5038194;28;20056;-66
2021/07/20 08:57:02;;;;;;;13.48;6.18;;;;;;;;;;5032727;28;20029;-65
2021/07/20 08:59:33;;;;;;;10.90;6.90;;;;;;;;;;5028972;28;20032;-65
2021/07/20 09:02:07;;;;;;;10.55;6.30;;;;;;;;;;5033854;28;20091;-66
2021/07/20 09:04:38;;;;;;;10.60;5.82;;;;;;;;;;5032870;28;20048;-65
2021/07/20 09:07:07;;;;;;;10.38;5.95;;;;;;;;;;5028079;28;20671;-65
2021/07/20 09:09:35;;;;;;;10.18;5.93;;;;;;;;;;5030580;28;20025;-65
2021/07/20 09:12:06;;;;;;;11.80;6.38;;;;;;;;;;5027650;28;20088;-65
2021/07/20 09:14:34;;;;;;;11.88;6.60;;;;;;;;;;5033297;28;20358;-64
2021/07/20 09:17:22;;;;;;;11.35;6.43;;;;;;;;;;5030203;28;20489;-66
2021/07/20 09:20:06;;;;;;;15.63;5.90;;;;;;;;;;5024467;28;20571;-64
2021/07/20 09:22:39;;;;;;;11.82;6.22;;;;;;;;;;5031802;28;20086;-65
2021/07/20 09:25:13;;;;;;;13.32;6.97;;;;;;;;;;5037804;28;20820;-66
2021/07/20 09:27:53;;;;;;;11.20;6.80;;;;;;;;;;5045614;28;20075;-66
2021/07/20 09:30:21;;;;;;;11.85;6.78;;;;;;;;;;5019876;28;20265;-67
2021/07/20 09:32:50;;;;;;;15.95;7.15;;;;;;;;;;5032335;28;20480;-66
2021/07/20 09:35:27;;;;;;;12.68;7.13;;;;;;;;;;5031625;28;20064;-67
2021/07/20 09:38:04;;;;;;;11.90;6.72;;;;;;;;;;5036224;28;20037;-66
2021/07/20 09:40:37;;;;;;;11.57;6.22;;;;;;;;;;5036201;28;20041;-65
2021/07/20 09:43:02;;;;;;;11.05;6.82;;;;;;;;;;5025871;28;20018;-65
2021/07/20 09:45:30;;;;;;;12.45;7.47;;;;;;;;;;5031188;28;20032;-64
2021/07/20 09:47:55;;;;;;;11.35;7.50;;;;;;;;;;5037131;28;20082;-64
2021/07/20 09:50:22;;;;;;;14.00;6.90;;;;;;;;;;5038596;28;20017;-65
2021/07/20 09:53:05;;;;;;;12.43;6.85;;;;;;;;;;5038462;28;20045;-66
2021/07/20 09:55:33;;;;;;;15.60;7.85;;;;;;;;;;5035129;28;20444;-65
2021/07/20 09:58:01;;;;;;;12.23;7.75;;;;;;;;;;5027156;28;20029;-64
2021/07/20 10:00:37;;;;;;;11.43;7.60;;;;;;;;;;5034229;28;20480;-65
2021/07/20 10:03:21;;;;;;;11.52;8.02;;;;;;;;;;5028968;28;20041;-66
2021/07/20 10:06:00;;;;;;;16.88;9.18;;;;;;;;;;5033999;28;20021;-66
2021/07/20 10:08:44;;;;;;;12.50;7.57;;;;;;;;;;5030682;28;20072;-65
2021/07/20 10:11:15;;;;;;;14.07;8.00;;;;;;;;;;5042234;28;20044;-66
2021/07/20 10:13:48;;;;;;;16.73;9.57;;;;;;;;;;5026773;28;20812;-65
2021/07/20 10:16:13;;;;;;;13.35;8.38;;;;;;;;;;5028721;28;20029;-66
2021/07/20 10:18:58;;;;;;;13.82;9.23;;;;;;;;;;5035995;28;20028;-66
2021/07/20 10:21:25;;;;;;;14.80;8.85;;;;;;;;;;5029244;28;20037;-66
2021/07/20 10:23:55;;;;;;;15.05;9.25;;;;;;;;;;5032644;28;20009;-66
2021/07/20 10:26:40;;;;;;;14.40;8.52;;;;;;;;;;5019326;28;20013;-66
2021/07/20 10:29:11;;;;;;;14.95;8.95;;;;;;;;;;5009745;28;20095;-67
2021/07/20 10:31:49;;;;;;;14.20;8.70;;;;;;;;;;5006424;28;20080;-65
2021/07/20 10:34:18;;;;;;;15.38;8.68;;;;;;;;;;5012435;28;20034;-66
2021/07/20 10:36:46;;;;;;;16.95;8.13;;;;;;;;;;5026175;28;20396;-65
2021/07/20 10:39:17;;;;;;;13.35;8.10;;;;;;;;;;5008451;28;20040;-66
2021/07/20 10:41:48;;;;;;;15.88;8.45;;;;;;;;;;5005875;28;20033;-66
2021/07/20 10:44:19;;;;;;;13.05;7.82;;;;;;;;;;5004721;28;20470;-66
2021/07/20 10:46:45;;;;;;;14.55;7.78;;;;;;;;;;4993756;28;20459;-65
2021/07/20 10:49:34;;;;;;;16.40;9.10;;;;;;;;;;5006526;28;20026;-66
2021/07/20 10:52:02;;;;;;;14.20;8.40;;;;;;;;;;4935065;29;20101;-66
2021/07/20 10:54:34;;;;;;;14.10;7.80;;;;;;;;;;4927930;29;20208;-64
2021/07/20 10:56:59;;;;;;;15.10;7.80;;;;;;;;;;4929348;29;20533;-68
2021/07/20 10:59:24;;;;;;;16.17;8.82;;;;;;;;;;4936978;29;20047;-65
2021/07/20 11:02:02;;;;;;;13.32;9.00;;;;;;;;;;4940955;28;20490;-65
2021/07/20 11:04:49;;;;;;;13.50;7.88;;;;;;;;;;4949193;28;20027;-67
2021/07/20 11:07:17;;;;;;;15.60;9.00;;;;;;;;;;4961186;28;20047;-66
2021/07/20 11:09:43;;;;;;;13.75;8.30;;;;;;;;;;4969268;28;20656;-66
2021/07/20 11:12:09;;;;;;;14.18;8.10;;;;;;;;;;4969222;28;20034;-67
2021/07/20 11:14:57;;;;;;;13.50;8.32;;;;;;;;;;4981243;28;20109;-66
2021/07/20 11:17:22;;;;;;;14.80;8.05;;;;;;;;;;4969683;28;20034;-67
2021/07/20 11:19:49;;;;;;;12.77;8.13;;;;;;;;;;4970387;28;20031;-66
2021/07/20 11:22:14;;;;;;;11.93;8.30;;;;;;;;;;4987389;28;20030;-65
2021/07/20 11:24:40;;;;;;;14.45;8.55;;;;;;;;;;4980511;28;20085;-64
2021/07/20 11:27:05;;;;;;;13.27;8.65;;;;;;;;;;4977068;28;20041;-66
2021/07/20 11:29:31;;;;;;;15.90;9.00;;;;;;;;;;5012413;28;20032;-66
2021/07/20 11:31:58;;;;;;;13.73;8.80;;;;;;;;;;5033042;28;20104;-65
2021/07/20 11:34:30;;;;;;;13.48;8.48;;;;;;;;;;5030322;28;20033;-65
2021/07/20 11:36:57;;;;;;;14.10;9.00;;;;;;;;;;5039293;28;20108;-66
2021/07/20 11:39:25;;;;;;;14.43;8.27;;;;;;;;;;5042955;28;20053;-67
2021/07/20 11:42:03;;;;;;;15.85;9.23;;;;;;;;;;5030042;28;20021;-66
2021/07/20 11:44:34;;;;;;;15.10;9.25;;;;;;;;;;5037099;28;20083;-66
2021/07/20 11:47:05;;;;;;;16.27;8.85;;;;;;;;;;5041480;28;20027;-65
2021/07/20 11:49:37;;;;;;;15.30;9.68;;;;;;;;;;5031301;28;20029;-67
2021/07/20 11:52:04;;;;;;;14.07;8.70;;;;;;;;;;5039229;28;20025;-67
2021/07/20 11:54:51;;;;;;;15.38;8.85;;;;;;;;;;5033386;28;20053;-66
2021/07/20 11:57:16;;;;;;;14.52;8.70;;;;;;;;;;5047056;28;20075;-66
2021/07/20 12:00:00;;;;;;;15.65;9.40;;;;;;;;;;5031004;28;20049;-66
2021/07/20 12:02:47;;;;;;;16.13;10.10;;;;;;;;;;5029126;28;20092;-66
2021/07/20 12:05:15;;;;;;;16.83;9.73;;;;;;;;;;5031616;28;20037;-67
2021/07/20 12:07:46;;;;;;;14.80;9.60;;;;;;;;;;5029764;28;20094;-66
2021/07/20 12:10:29;;;;;;;14.73;9.02;;;;;;;;;;5029292;28;20483;-66
2021/07/20 12:12:56;;;;;;;19.25;10.88;;;;;;;;;;5028538;28;20027;-66
2021/07/20 12:15:23;;;;;;;16.80;10.07;;;;;;;;;;5037351;28;20431;-62
2021/07/20 12:17:49;;;;;;;19.30;11.00;;;;;;;;;;5035973;28;20365;-65
2021/07/20 12:20:15;;;;;;;14.75;9.00;;;;;;;;;;5029092;28;20013;-65
2021/07/20 12:22:44;;;;;;;17.02;9.98;;;;;;;;;;5035293;28;20027;-65
2021/07/20 12:25:10;;;;;;;17.58;10.98;;;;;;;;;;5046696;28;20111;-65
2021/07/20 12:27:38;;;;;;;18.92;10.77;;;;;;;;;;5047728;28;20063;-66
2021/07/20 12:30:14;;;;;;;18.58;11.30;;;;;;;;;;5041687;28;20323;-66
2021/07/20 12:32:43;;;;;;;17.83;11.27;;;;;;;;;;5035978;28;20024;-65
2021/07/20 12:35:12;;;;;;;19.13;10.43;;;;;;;;;;5029183;28;20021;-67
2021/07/20 12:37:39;;;;;;;17.65;10.85;;;;;;;;;;5041684;28;20030;-66
2021/07/20 12:40:05;;;;;;;16.15;10.68;;;;;;;;;;5042483;28;20034;-66
2021/07/20 12:42:39;;;;;;;16.45;9.70;;;;;;;;;;5035420;28;20036;-64
2021/07/20 12:45:06;;;;;;;15.23;10.82;;;;;;;;;;5041922;28;20021;-66
2021/07/20 12:47:40;;;;;;;15.63;10.02;;;;;;;;;;5028698;28;20029;-66
2021/07/20 12:50:06;;;;;;;18.63;10.50;;;;;;;;;;5023224;28;20044;-66
2021/07/20 12:52:36;;;;;;;18.30;10.80;;;;;;;;;;5027814;28;20021;-67
2021/07/20 12:55:05;;;;;;;13.65;8.98;;;;;;;;;;5026399;28;20013;-65
2021/07/20 12:57:30;;;;;;;18.20;10.97;;;;;;;;;;5033868;28;20044;-65
2021/07/20 12:59:55;;;;;;;17.73;10.67;;;;;;;;;;5026679;28;20033;-66
2021/07/20 13:02:21;;;;;;;17.47;12.07;;;;;;;;;;5026472;28;20280;-66
2021/07/20 13:04:47;;;;;;;14.95;9.98;;;;;;;;;;5034001;28;20387;-66
2021/07/20 13:07:12;;;;;;;18.95;9.40;;;;;;;;;;5024766;28;20038;-66
2021/07/20 13:09:38;;;;;;;17.77;11.15;;;;;;;;;;5034249;28;20036;-66
2021/07/20 13:12:03;;;;;;;18.70;11.52;;;;;;;;;;5018898;28;20029;-66
2021/07/20 13:14:31;;;;;;;18.30;11.18;;;;;;;;;;5026219;28;20037;-67
2021/07/20 13:16:59;;;;;;;16.27;9.93;;;;;;;;;;5025168;28;20038;-67
2021/07/20 13:19:24;;;;;;;17.02;10.82;;;;;;;;;;5018507;28;20026;-64
2021/07/20 13:21:49;;;;;;;18.05;11.30;;;;;;;;;;5023673;28;20025;-65
2021/07/20 13:24:15;;;;;;;18.30;10.57;;;;;;;;;;5036332;28;20040;-66
2021/07/20 13:26:40;;;;;;;19.60;10.60;;;;;;;;;;5034930;28;20021;-65
2021/07/20 13:29:12;;;;;;;19.15;12.82;;;;;;;;;;5039630;28;20017;-66
2021/07/20 13:31:39;;;;;;;18.65;11.45;;;;;;;;;;5038004;28;20476;-66
2021/07/20 13:34:06;;;;;;;20.13;11.25;;;;;;;;;;5033734;28;20132;-68
2021/07/20 13:36:33;;;;;;;19.98;12.48;;;;;;;;;;5036318;28;20017;-67
2021/07/20 13:38:59;;;;;;;18.27;11.32;;;;;;;;;;5029733;28;20632;-67
2021/07/20 13:41:24;;;;;;;19.90;11.35;;;;;;;;;;5038310;28;20021;-66
2021/07/20 13:43:51;;;;;;;18.38;11.40;;;;;;;;;;5033524;28;20468;-66
2021/07/20 13:46:16;;;;;;;18.67;11.77;;;;;;;;;;5025681;28;20079;-66
2021/07/20 13:48:44;;;;;;;18.42;11.50;;;;;;;;;;5035922;28;20033;-65
2021/07/20 13:51:10;;;;;;;15.05;10.52;;;;;;;;;;5028185;28;20028;-66
2021/07/20 13:53:37;;;;;;;20.17;10.68;;;;;;;;;;5026564;28;20413;-66
2021/07/20 13:56:15;;;;;;;20.02;11.45;;;;;;;;;;5032789;28;20163;-65
2021/07/20 13:58:42;;;;;;;16.23;10.48;;;;;;;;;;5037858;28;20032;-67
2021/07/20 14:01:07;;;;;;;18.48;11.10;;;;;;;;;;5035607;28;20045;-67
2021/07/20 14:03:33;;;;;;;22.75;12.10;;;;;;;;;;5039316;28;20061;-66
2021/07/20 14:05:59;;;;;;;18.27;10.50;;;;;;;;;;5032098;28;20045;-66
2021/07/20 14:08:24;;;;;;;18.75;11.65;;;;;;;;;;5039442;28;20032;-66
2021/07/20 14:10:50;;;;;;;16.13;11.30;;;;;;;;;;5035752;28;20025;-65
2021/07/20 14:13:16;;;;;;;19.35;10.80;;;;;;;;;;5032996;28;20108;-63
2021/07/20 14:15:41;;;;;;;20.42;11.60;;;;;;;;;;5032338;28;20018;-63
2021/07/20 14:18:07;;;;;;;17.38;10.60;;;;;;;;;;5037415;28;20488;-63
2021/07/20 14:20:33;;;;;;;18.27;11.35;;;;;;;;;;5039586;28;20052;-64
2021/07/20 14:22:59;;;;;;;17.63;10.98;;;;;;;;;;5037726;28;20068;-63
2021/07/20 14:25:24;;;;;;;17.98;12.25;;;;;;;;;;5043291;28;20108;-64
2021/07/20 14:27:50;;;;;;;19.88;13.13;;;;;;;;;;5032319;28;20064;-64
2021/07/20 14:30:15;;;;;;;18.70;11.05;;;;;;;;;;5031146;28;20429;-63
2021/07/20 14:32:40;;;;;;;19.63;11.20;;;;;;;;;;5037433;28;20064;-63
2021/07/20 14:35:06;;;;;;;17.88;11.10;;;;;;;;;;5034613;28;20029;-63
2021/07/20 14:37:34;;;;;;;17.17;10.95;;;;;;;;;;5046311;28;20036;-64